sensor_id;sensor_type;location;lat;lon;timestamp;P1;durP1;ratioP1;P2;durP2;ratioP2
20322;SDS011;10319;52.206;20.996;2022-10-30T00:00:52;28.43;;;11.20;;
20322;SDS011;10319;52.206;20.996;2022-10-30T00:03:17;20.60;;;8.23;;
20322;SDS011;10319;52.206;20.996;2022-10-30T00:05:44;24.60;;;10.60;;
20322;SDS011;10319;52.206;20.996;2022-10-30T00:08:10;22.20;;;9.20;;
20322;SDS011;10319;52.206;20.996;2022-10-30T00:10:35;24.70;;;10.67;;
20322;SDS011;10319;52.206;20.996;2022-10-30T00:13:01;20.73;;;9.70;;
20322;SDS011;10319;52.206;20.996;2022-10-30T00:15:26;22.77;;;10.40;;
20322;SDS011;10319;52.206;20.996;2022-10-30T00:17:51;23.17;;;9.97;;
20322;SDS011;10319;52.206;20.996;2022-10-30T00:20:17;24.50;;;10.33;;
20322;SDS011;10319;52.206;20.996;2022-10-30T00:22:42;22.80;;;9.73;;
20322;SDS011;10319;52.206;20.996;2022-10-30T00:25:07;26.87;;;10.47;;
20322;SDS011;10319;52.206;20.996;2022-10-30T00:27:33;22.23;;;9.07;;
20322;SDS011;10319;52.206;20.996;2022-10-30T00:29:58;23.67;;;10.20;;
20322;SDS011;10319;52.206;20.996;2022-10-30T00:32:23;28.57;;;9.67;;
20322;SDS011;10319;52.206;20.996;2022-10-30T00:34:48;19.53;;;8.47;;
20322;SDS011;10319;52.206;20.996;2022-10-30T00:37:13;23.13;;;9.40;;
20322;SDS011;10319;52.206;20.996;2022-10-30T00:39:39;22.87;;;9.37;;
20322;SDS011;10319;52.206;20.996;2022-10-30T00:42:04;26.60;;;9.90;;
20322;SDS011;10319;52.206;20.996;2022-10-30T00:44:48;20.83;;;9.53;;
20322;SDS011;10319;52.206;20.996;2022-10-30T00:49:42;21.97;;;10.07;;
20322;SDS011;10319;52.206;20.996;2022-10-30T00:52:08;24.30;;;10.00;;
20322;SDS011;10319;52.206;20.996;2022-10-30T00:54:34;23.13;;;10.50;;
20322;SDS011;10319;52.206;20.996;2022-10-30T00:57:01;24.10;;;9.73;;
20322;SDS011;10319;52.206;20.996;2022-10-30T00:59:27;24.60;;;10.43;;
20322;SDS011;10319;52.206;20.996;2022-10-30T01:01:53;22.77;;;9.17;;
20322;SDS011;10319;52.206;20.996;2022-10-30T01:04:19;25.67;;;9.33;;
20322;SDS011;10319;52.206;20.996;2022-10-30T01:06:45;23.67;;;10.00;;
20322;SDS011;10319;52.206;20.996;2022-10-30T01:09:12;18.07;;;8.20;;
20322;SDS011;10319;52.206;20.996;2022-10-30T01:11:38;24.07;;;9.67;;
20322;SDS011;10319;52.206;20.996;2022-10-30T01:14:03;20.17;;;8.80;;
20322;SDS011;10319;52.206;20.996;2022-10-30T01:21:40;25.40;;;10.70;;
20322;SDS011;10319;52.206;20.996;2022-10-30T01:34:41;17.33;;;6.10;;
20322;SDS011;10319;52.206;20.996;2022-10-30T01:39:39;19.77;;;8.83;;
20322;SDS011;10319;52.206;20.996;2022-10-30T01:42:09;22.73;;;9.93;;
20322;SDS011;10319;52.206;20.996;2022-10-30T01:44:34;20.80;;;8.83;;
20322;SDS011;10319;52.206;20.996;2022-10-30T01:57:04;22.50;;;10.37;;
20322;SDS011;10319;52.206;20.996;2022-10-30T02:01:56;20.53;;;9.37;;
20322;SDS011;10319;52.206;20.996;2022-10-30T02:04:22;24.83;;;10.50;;
20322;SDS011;10319;52.206;20.996;2022-10-30T02:06:47;26.20;;;10.50;;
20322;SDS011;10319;52.206;20.996;2022-10-30T02:09:14;20.20;;;9.40;;
20322;SDS011;10319;52.206;20.996;2022-10-30T02:11:39;24.17;;;10.13;;
20322;SDS011;10319;52.206;20.996;2022-10-30T02:14:05;22.33;;;10.20;;
20322;SDS011;10319;52.206;20.996;2022-10-30T02:16:34;24.30;;;10.03;;
20322;SDS011;10319;52.206;20.996;2022-10-30T02:19:01;23.53;;;10.23;;
20322;SDS011;10319;52.206;20.996;2022-10-30T02:21:27;24.67;;;10.90;;
20322;SDS011;10319;52.206;20.996;2022-10-30T02:23:52;22.13;;;9.23;;
20322;SDS011;10319;52.206;20.996;2022-10-30T02:26:17;21.43;;;9.23;;
20322;SDS011;10319;52.206;20.996;2022-10-30T02:28:42;25.10;;;9.37;;
20322;SDS011;10319;52.206;20.996;2022-10-30T02:31:08;23.63;;;9.90;;
20322;SDS011;10319;52.206;20.996;2022-10-30T02:33:33;27.90;;;11.03;;
20322;SDS011;10319;52.206;20.996;2022-10-30T02:35:58;22.70;;;9.60;;
20322;SDS011;10319;52.206;20.996;2022-10-30T02:38:23;22.00;;;9.37;;
20322;SDS011;10319;52.206;20.996;2022-10-30T02:40:49;20.10;;;8.53;;
20322;SDS011;10319;52.206;20.996;2022-10-30T02:43:14;20.13;;;7.77;;
20322;SDS011;10319;52.206;20.996;2022-10-30T02:45:39;17.70;;;7.00;;
20322;SDS011;10319;52.206;20.996;2022-10-30T02:48:05;17.93;;;7.20;;
20322;SDS011;10319;52.206;20.996;2022-10-30T02:50:31;17.80;;;7.57;;
20322;SDS011;10319;52.206;20.996;2022-10-30T02:52:57;16.83;;;7.13;;
20322;SDS011;10319;52.206;20.996;2022-10-30T02:55:22;20.53;;;8.63;;
20322;SDS011;10319;52.206;20.996;2022-10-30T02:57:47;21.73;;;9.90;;
20322;SDS011;10319;52.206;20.996;2022-10-30T03:00:13;18.27;;;8.07;;
20322;SDS011;10319;52.206;20.996;2022-10-30T03:02:38;19.37;;;7.80;;
20322;SDS011;10319;52.206;20.996;2022-10-30T03:05:03;16.20;;;6.47;;
20322;SDS011;10319;52.206;20.996;2022-10-30T03:07:29;19.67;;;7.80;;
20322;SDS011;10319;52.206;20.996;2022-10-30T03:09:54;19.60;;;7.43;;
20322;SDS011;10319;52.206;20.996;2022-10-30T03:12:20;18.13;;;7.47;;
20322;SDS011;10319;52.206;20.996;2022-10-30T03:14:45;20.47;;;8.67;;
20322;SDS011;10319;52.206;20.996;2022-10-30T03:17:10;21.00;;;9.77;;
20322;SDS011;10319;52.206;20.996;2022-10-30T03:19:36;21.77;;;9.60;;
20322;SDS011;10319;52.206;20.996;2022-10-30T03:22:01;18.57;;;8.53;;
20322;SDS011;10319;52.206;20.996;2022-10-30T03:24:27;22.60;;;9.60;;
20322;SDS011;10319;52.206;20.996;2022-10-30T03:26:52;18.67;;;8.27;;
20322;SDS011;10319;52.206;20.996;2022-10-30T03:29:17;18.73;;;7.47;;
20322;SDS011;10319;52.206;20.996;2022-10-30T03:31:42;22.07;;;9.47;;
20322;SDS011;10319;52.206;20.996;2022-10-30T03:34:08;24.07;;;10.67;;
20322;SDS011;10319;52.206;20.996;2022-10-30T03:36:33;19.50;;;9.37;;
20322;SDS011;10319;52.206;20.996;2022-10-30T03:38:58;20.73;;;8.77;;
20322;SDS011;10319;52.206;20.996;2022-10-30T03:41:24;22.17;;;8.60;;
20322;SDS011;10319;52.206;20.996;2022-10-30T03:43:49;16.83;;;7.03;;
20322;SDS011;10319;52.206;20.996;2022-10-30T03:46:14;21.93;;;9.20;;
20322;SDS011;10319;52.206;20.996;2022-10-30T03:48:39;20.43;;;9.87;;
20322;SDS011;10319;52.206;20.996;2022-10-30T03:51:05;23.07;;;10.07;;
20322;SDS011;10319;52.206;20.996;2022-10-30T03:53:30;24.63;;;10.23;;
20322;SDS011;10319;52.206;20.996;2022-10-30T03:55:56;19.97;;;9.20;;
20322;SDS011;10319;52.206;20.996;2022-10-30T03:58:21;24.40;;;10.10;;
20322;SDS011;10319;52.206;20.996;2022-10-30T04:00:47;21.30;;;9.53;;
20322;SDS011;10319;52.206;20.996;2022-10-30T04:03:12;18.73;;;8.87;;
20322;SDS011;10319;52.206;20.996;2022-10-30T04:05:37;21.03;;;9.83;;
20322;SDS011;10319;52.206;20.996;2022-10-30T04:08:04;21.80;;;10.27;;
20322;SDS011;10319;52.206;20.996;2022-10-30T04:10:29;21.90;;;10.10;;
20322;SDS011;10319;52.206;20.996;2022-10-30T04:13:01;22.90;;;10.90;;
20322;SDS011;10319;52.206;20.996;2022-10-30T04:15:27;23.97;;;9.87;;
20322;SDS011;10319;52.206;20.996;2022-10-30T04:17:53;24.43;;;10.33;;
20322;SDS011;10319;52.206;20.996;2022-10-30T04:20:18;23.53;;;10.43;;
20322;SDS011;10319;52.206;20.996;2022-10-30T04:22:44;21.40;;;10.27;;
20322;SDS011;10319;52.206;20.996;2022-10-30T04:25:10;23.80;;;10.33;;
20322;SDS011;10319;52.206;20.996;2022-10-30T04:27:39;21.30;;;9.07;;
20322;SDS011;10319;52.206;20.996;2022-10-30T04:30:05;22.10;;;9.73;;
20322;SDS011;10319;52.206;20.996;2022-10-30T04:32:30;23.17;;;9.83;;
20322;SDS011;10319;52.206;20.996;2022-10-30T04:34:55;25.43;;;10.77;;
20322;SDS011;10319;52.206;20.996;2022-10-30T04:37:21;24.77;;;11.53;;
20322;SDS011;10319;52.206;20.996;2022-10-30T04:39:46;22.10;;;10.20;;
20322;SDS011;10319;52.206;20.996;2022-10-30T04:42:12;25.07;;;10.43;;
20322;SDS011;10319;52.206;20.996;2022-10-30T04:44:37;23.27;;;10.87;;
20322;SDS011;10319;52.206;20.996;2022-10-30T04:47:03;23.23;;;11.03;;
20322;SDS011;10319;52.206;20.996;2022-10-30T04:49:28;28.20;;;11.30;;
20322;SDS011;10319;52.206;20.996;2022-10-30T04:51:53;24.07;;;10.43;;
20322;SDS011;10319;52.206;20.996;2022-10-30T04:54:18;22.70;;;10.67;;
20322;SDS011;10319;52.206;20.996;2022-10-30T04:56:46;24.90;;;11.83;;
20322;SDS011;10319;52.206;20.996;2022-10-30T04:59:11;23.60;;;11.47;;
20322;SDS011;10319;52.206;20.996;2022-10-30T05:01:36;24.03;;;11.20;;
20322;SDS011;10319;52.206;20.996;2022-10-30T05:04:01;25.53;;;11.40;;
20322;SDS011;10319;52.206;20.996;2022-10-30T05:06:27;26.27;;;11.47;;
20322;SDS011;10319;52.206;20.996;2022-10-30T05:08:54;24.67;;;10.80;;
20322;SDS011;10319;52.206;20.996;2022-10-30T05:11:20;23.80;;;11.23;;
20322;SDS011;10319;52.206;20.996;2022-10-30T05:13:45;25.07;;;11.03;;
20322;SDS011;10319;52.206;20.996;2022-10-30T05:16:10;23.47;;;10.87;;
20322;SDS011;10319;52.206;20.996;2022-10-30T05:18:36;23.80;;;10.87;;
20322;SDS011;10319;52.206;20.996;2022-10-30T05:21:01;25.20;;;11.30;;
20322;SDS011;10319;52.206;20.996;2022-10-30T05:23:26;22.33;;;10.43;;
20322;SDS011;10319;52.206;20.996;2022-10-30T05:25:51;22.27;;;10.00;;
20322;SDS011;10319;52.206;20.996;2022-10-30T05:28:16;24.77;;;10.77;;
20322;SDS011;10319;52.206;20.996;2022-10-30T05:30:42;21.67;;;10.27;;
20322;SDS011;10319;52.206;20.996;2022-10-30T05:33:08;23.27;;;10.33;;
20322;SDS011;10319;52.206;20.996;2022-10-30T05:35:34;21.20;;;9.57;;
20322;SDS011;10319;52.206;20.996;2022-10-30T05:37:59;20.47;;;9.40;;
20322;SDS011;10319;52.206;20.996;2022-10-30T05:40:25;19.07;;;8.23;;
20322;SDS011;10319;52.206;20.996;2022-10-30T05:42:51;21.40;;;8.37;;
20322;SDS011;10319;52.206;20.996;2022-10-30T05:45:16;20.43;;;8.97;;
20322;SDS011;10319;52.206;20.996;2022-10-30T05:47:41;19.70;;;8.73;;
20322;SDS011;10319;52.206;20.996;2022-10-30T05:50:07;25.97;;;11.03;;
20322;SDS011;10319;52.206;20.996;2022-10-30T05:52:32;22.27;;;10.47;;
20322;SDS011;10319;52.206;20.996;2022-10-30T05:54:58;23.10;;;10.07;;
20322;SDS011;10319;52.206;20.996;2022-10-30T05:57:23;20.43;;;8.80;;
20322;SDS011;10319;52.206;20.996;2022-10-30T05:59:48;20.60;;;9.47;;
20322;SDS011;10319;52.206;20.996;2022-10-30T06:02:15;23.00;;;10.67;;
20322;SDS011;10319;52.206;20.996;2022-10-30T06:04:40;21.57;;;9.27;;
20322;SDS011;10319;52.206;20.996;2022-10-30T06:07:05;26.43;;;10.40;;
20322;SDS011;10319;52.206;20.996;2022-10-30T06:09:31;21.33;;;9.83;;
20322;SDS011;10319;52.206;20.996;2022-10-30T06:11:56;26.13;;;10.40;;
20322;SDS011;10319;52.206;20.996;2022-10-30T06:14:22;24.63;;;10.07;;
20322;SDS011;10319;52.206;20.996;2022-10-30T06:16:47;20.83;;;9.40;;
20322;SDS011;10319;52.206;20.996;2022-10-30T06:19:13;22.10;;;8.77;;
20322;SDS011;10319;52.206;20.996;2022-10-30T06:21:38;22.23;;;9.20;;
20322;SDS011;10319;52.206;20.996;2022-10-30T06:24:03;21.37;;;8.67;;
20322;SDS011;10319;52.206;20.996;2022-10-30T06:26:29;20.10;;;7.90;;
20322;SDS011;10319;52.206;20.996;2022-10-30T06:28:54;17.53;;;7.10;;
20322;SDS011;10319;52.206;20.996;2022-10-30T06:31:19;17.50;;;6.57;;
20322;SDS011;10319;52.206;20.996;2022-10-30T06:33:44;17.33;;;6.53;;
20322;SDS011;10319;52.206;20.996;2022-10-30T06:36:10;17.63;;;6.90;;
20322;SDS011;10319;52.206;20.996;2022-10-30T06:38:35;20.80;;;8.07;;
20322;SDS011;10319;52.206;20.996;2022-10-30T06:41:00;21.50;;;7.67;;
20322;SDS011;10319;52.206;20.996;2022-10-30T06:43:25;21.17;;;7.70;;
20322;SDS011;10319;52.206;20.996;2022-10-30T06:45:51;17.93;;;6.97;;
20322;SDS011;10319;52.206;20.996;2022-10-30T06:48:16;21.33;;;8.20;;
20322;SDS011;10319;52.206;20.996;2022-10-30T06:50:42;19.83;;;7.83;;
20322;SDS011;10319;52.206;20.996;2022-10-30T06:53:08;20.60;;;7.97;;
20322;SDS011;10319;52.206;20.996;2022-10-30T06:55:33;19.57;;;7.90;;
20322;SDS011;10319;52.206;20.996;2022-10-30T06:57:58;20.17;;;8.47;;
20322;SDS011;10319;52.206;20.996;2022-10-30T07:00:23;20.77;;;8.70;;
20322;SDS011;10319;52.206;20.996;2022-10-30T07:02:58;18.77;;;7.63;;
20322;SDS011;10319;52.206;20.996;2022-10-30T07:05:24;19.20;;;7.60;;
20322;SDS011;10319;52.206;20.996;2022-10-30T07:07:49;20.50;;;8.47;;
20322;SDS011;10319;52.206;20.996;2022-10-30T07:10:14;18.63;;;7.80;;
20322;SDS011;10319;52.206;20.996;2022-10-30T07:12:40;24.33;;;8.80;;
20322;SDS011;10319;52.206;20.996;2022-10-30T07:15:05;18.10;;;7.70;;
20322;SDS011;10319;52.206;20.996;2022-10-30T07:17:30;18.07;;;8.20;;
20322;SDS011;10319;52.206;20.996;2022-10-30T07:19:55;20.23;;;8.97;;
20322;SDS011;10319;52.206;20.996;2022-10-30T07:22:21;20.70;;;8.47;;
20322;SDS011;10319;52.206;20.996;2022-10-30T07:24:46;21.23;;;8.77;;
20322;SDS011;10319;52.206;20.996;2022-10-30T07:27:11;20.40;;;8.60;;
20322;SDS011;10319;52.206;20.996;2022-10-30T07:29:36;20.73;;;8.03;;
20322;SDS011;10319;52.206;20.996;2022-10-30T07:32:02;19.90;;;8.63;;
20322;SDS011;10319;52.206;20.996;2022-10-30T07:34:27;19.90;;;8.37;;
20322;SDS011;10319;52.206;20.996;2022-10-30T07:36:52;18.10;;;7.70;;
20322;SDS011;10319;52.206;20.996;2022-10-30T07:39:17;19.23;;;7.93;;
20322;SDS011;10319;52.206;20.996;2022-10-30T07:41:43;18.57;;;7.30;;
20322;SDS011;10319;52.206;20.996;2022-10-30T07:44:08;20.20;;;8.37;;
20322;SDS011;10319;52.206;20.996;2022-10-30T07:46:33;22.40;;;8.57;;
20322;SDS011;10319;52.206;20.996;2022-10-30T07:48:58;21.03;;;8.20;;
20322;SDS011;10319;52.206;20.996;2022-10-30T07:51:24;19.27;;;6.97;;
20322;SDS011;10319;52.206;20.996;2022-10-30T07:53:49;17.50;;;7.27;;
20322;SDS011;10319;52.206;20.996;2022-10-30T07:56:14;16.63;;;7.00;;
20322;SDS011;10319;52.206;20.996;2022-10-30T07:58:39;20.33;;;8.03;;
20322;SDS011;10319;52.206;20.996;2022-10-30T08:01:05;21.43;;;8.07;;
20322;SDS011;10319;52.206;20.996;2022-10-30T08:03:30;20.53;;;7.63;;
20322;SDS011;10319;52.206;20.996;2022-10-30T08:05:55;18.10;;;7.03;;
20322;SDS011;10319;52.206;20.996;2022-10-30T08:08:20;18.77;;;7.10;;
20322;SDS011;10319;52.206;20.996;2022-10-30T08:10:46;17.63;;;6.70;;
20322;SDS011;10319;52.206;20.996;2022-10-30T08:13:11;19.00;;;6.40;;
20322;SDS011;10319;52.206;20.996;2022-10-30T08:15:38;17.47;;;6.20;;
20322;SDS011;10319;52.206;20.996;2022-10-30T08:18:03;17.57;;;6.83;;
20322;SDS011;10319;52.206;20.996;2022-10-30T08:20:28;20.10;;;7.80;;
20322;SDS011;10319;52.206;20.996;2022-10-30T08:22:54;18.80;;;7.37;;
20322;SDS011;10319;52.206;20.996;2022-10-30T08:25:21;18.13;;;7.10;;
20322;SDS011;10319;52.206;20.996;2022-10-30T08:30:15;14.83;;;5.83;;
20322;SDS011;10319;52.206;20.996;2022-10-30T08:32:43;15.93;;;5.90;;
20322;SDS011;10319;52.206;20.996;2022-10-30T08:35:08;17.10;;;6.50;;
20322;SDS011;10319;52.206;20.996;2022-10-30T08:37:34;19.77;;;7.07;;
20322;SDS011;10319;52.206;20.996;2022-10-30T08:39:59;18.00;;;7.03;;
20322;SDS011;10319;52.206;20.996;2022-10-30T08:42:24;16.83;;;6.40;;
20322;SDS011;10319;52.206;20.996;2022-10-30T08:44:49;20.75;;;7.15;;
20322;SDS011;10319;52.206;20.996;2022-10-30T08:47:15;19.23;;;7.10;;
20322;SDS011;10319;52.206;20.996;2022-10-30T08:49:40;17.13;;;6.43;;
20322;SDS011;10319;52.206;20.996;2022-10-30T08:52:08;18.63;;;6.80;;
20322;SDS011;10319;52.206;20.996;2022-10-30T08:54:34;21.27;;;6.90;;
20322;SDS011;10319;52.206;20.996;2022-10-30T08:56:59;20.27;;;6.68;;
20322;SDS011;10319;52.206;20.996;2022-10-30T08:59:24;20.35;;;7.30;;
20322;SDS011;10319;52.206;20.996;2022-10-30T09:01:49;19.67;;;6.55;;
20322;SDS011;10319;52.206;20.996;2022-10-30T09:04:15;17.77;;;7.05;;
20322;SDS011;10319;52.206;20.996;2022-10-30T09:06:40;16.48;;;6.03;;
20322;SDS011;10319;52.206;20.996;2022-10-30T09:09:05;21.05;;;6.97;;
20322;SDS011;10319;52.206;20.996;2022-10-30T09:11:31;17.20;;;6.72;;
20322;SDS011;10319;52.206;20.996;2022-10-30T09:13:56;18.02;;;7.28;;
20322;SDS011;10319;52.206;20.996;2022-10-30T09:16:21;17.83;;;6.70;;
20322;SDS011;10319;52.206;20.996;2022-10-30T09:18:46;20.00;;;7.18;;
20322;SDS011;10319;52.206;20.996;2022-10-30T09:21:12;18.02;;;6.30;;
20322;SDS011;10319;52.206;20.996;2022-10-30T09:23:37;17.70;;;6.67;;
20322;SDS011;10319;52.206;20.996;2022-10-30T09:26:02;18.20;;;6.70;;
20322;SDS011;10319;52.206;20.996;2022-10-30T09:28:27;17.57;;;7.00;;
20322;SDS011;10319;52.206;20.996;2022-10-30T09:30:52;18.50;;;6.95;;
20322;SDS011;10319;52.206;20.996;2022-10-30T09:33:20;17.85;;;6.30;;
20322;SDS011;10319;52.206;20.996;2022-10-30T09:35:45;18.38;;;6.40;;
20322;SDS011;10319;52.206;20.996;2022-10-30T09:38:10;17.95;;;6.65;;
20322;SDS011;10319;52.206;20.996;2022-10-30T09:40:47;19.80;;;7.00;;
20322;SDS011;10319;52.206;20.996;2022-10-30T09:48:35;18.75;;;7.32;;
20322;SDS011;10319;52.206;20.996;2022-10-30T09:56:31;17.58;;;5.80;;
20322;SDS011;10319;52.206;20.996;2022-10-30T10:01:29;15.60;;;5.40;;
20322;SDS011;10319;52.206;20.996;2022-10-30T10:06:27;13.87;;;4.90;;
20322;SDS011;10319;52.206;20.996;2022-10-30T10:09:03;13.45;;;4.57;;
20322;SDS011;10319;52.206;20.996;2022-10-30T10:11:37;16.30;;;5.30;;
20322;SDS011;10319;52.206;20.996;2022-10-30T10:14:06;17.05;;;4.82;;
20322;SDS011;10319;52.206;20.996;2022-10-30T10:16:33;16.45;;;5.43;;
20322;SDS011;10319;52.206;20.996;2022-10-30T10:21:45;14.38;;;4.68;;
20322;SDS011;10319;52.206;20.996;2022-10-30T10:24:13;17.00;;;5.22;;
20322;SDS011;10319;52.206;20.996;2022-10-30T10:31:52;13.90;;;4.75;;
20322;SDS011;10319;52.206;20.996;2022-10-30T10:34:25;13.25;;;4.10;;
20322;SDS011;10319;52.206;20.996;2022-10-30T10:52:12;15.13;;;4.05;;
20322;SDS011;10319;52.206;20.996;2022-10-30T10:57:07;13.48;;;3.85;;
20322;SDS011;10319;52.206;20.996;2022-10-30T10:59:37;14.60;;;3.90;;
20322;SDS011;10319;52.206;20.996;2022-10-30T11:04:39;14.40;;;3.88;;
20322;SDS011;10319;52.206;20.996;2022-10-30T11:07:20;13.27;;;4.05;;
20322;SDS011;10319;52.206;20.996;2022-10-30T11:09:47;14.70;;;3.90;;
20322;SDS011;10319;52.206;20.996;2022-10-30T11:12:15;14.25;;;3.70;;
20322;SDS011;10319;52.206;20.996;2022-10-30T11:14:40;13.23;;;3.95;;
20322;SDS011;10319;52.206;20.996;2022-10-30T11:17:15;11.77;;;3.38;;
20322;SDS011;10319;52.206;20.996;2022-10-30T11:19:43;12.40;;;3.67;;
20322;SDS011;10319;52.206;20.996;2022-10-30T11:24:52;12.65;;;3.20;;
20322;SDS011;10319;52.206;20.996;2022-10-30T11:29:56;11.30;;;2.92;;
20322;SDS011;10319;52.206;20.996;2022-10-30T11:32:23;11.68;;;2.92;;
20322;SDS011;10319;52.206;20.996;2022-10-30T11:37:46;11.20;;;2.72;;
20322;SDS011;10319;52.206;20.996;2022-10-30T11:42:40;12.07;;;2.88;;
20322;SDS011;10319;52.206;20.996;2022-10-30T11:45:23;10.38;;;2.60;;
20322;SDS011;10319;52.206;20.996;2022-10-30T11:47:48;11.55;;;2.80;;
20322;SDS011;10319;52.206;20.996;2022-10-30T11:50:22;11.30;;;2.85;;
20322;SDS011;10319;52.206;20.996;2022-10-30T11:52:48;11.55;;;2.90;;
20322;SDS011;10319;52.206;20.996;2022-10-30T11:55:29;10.95;;;3.00;;
20322;SDS011;10319;52.206;20.996;2022-10-30T11:57:57;10.05;;;2.85;;
20322;SDS011;10319;52.206;20.996;2022-10-30T12:00:23;10.63;;;2.83;;
20322;SDS011;10319;52.206;20.996;2022-10-30T12:02:50;11.52;;;3.50;;
20322;SDS011;10319;52.206;20.996;2022-10-30T12:07:50;12.93;;;3.10;;
20322;SDS011;10319;52.206;20.996;2022-10-30T12:10:25;13.40;;;3.30;;
20322;SDS011;10319;52.206;20.996;2022-10-30T12:12:51;11.52;;;2.80;;
20322;SDS011;10319;52.206;20.996;2022-10-30T12:15:20;9.05;;;2.58;;
20322;SDS011;10319;52.206;20.996;2022-10-30T12:18:04;11.38;;;2.72;;
20322;SDS011;10319;52.206;20.996;2022-10-30T12:20:31;10.25;;;2.33;;
20322;SDS011;10319;52.206;20.996;2022-10-30T12:22:57;9.85;;;2.38;;
20322;SDS011;10319;52.206;20.996;2022-10-30T12:27:48;9.93;;;2.60;;
20322;SDS011;10319;52.206;20.996;2022-10-30T12:30:18;9.30;;;2.42;;
20322;SDS011;10319;52.206;20.996;2022-10-30T12:32:51;6.82;;;1.95;;
20322;SDS011;10319;52.206;20.996;2022-10-30T12:35:38;12.23;;;2.70;;
20322;SDS011;10319;52.206;20.996;2022-10-30T12:38:05;8.88;;;2.30;;
20322;SDS011;10319;52.206;20.996;2022-10-30T12:40:34;6.38;;;2.00;;
20322;SDS011;10319;52.206;20.996;2022-10-30T12:45:36;8.85;;;2.33;;
20322;SDS011;10319;52.206;20.996;2022-10-30T12:48:15;8.65;;;2.30;;
20322;SDS011;10319;52.206;20.996;2022-10-30T12:55:53;8.38;;;2.30;;
20322;SDS011;10319;52.206;20.996;2022-10-30T13:00:59;9.90;;;2.50;;
20322;SDS011;10319;52.206;20.996;2022-10-30T13:03:28;8.63;;;2.30;;
20322;SDS011;10319;52.206;20.996;2022-10-30T13:05:54;9.18;;;2.35;;
20322;SDS011;10319;52.206;20.996;2022-10-30T13:08:24;8.00;;;2.20;;
20322;SDS011;10319;52.206;20.996;2022-10-30T13:11:15;8.65;;;2.13;;
20322;SDS011;10319;52.206;20.996;2022-10-30T13:13:41;8.18;;;2.40;;
20322;SDS011;10319;52.206;20.996;2022-10-30T13:16:10;8.30;;;2.40;;
20322;SDS011;10319;52.206;20.996;2022-10-30T13:18:37;8.93;;;2.45;;
20322;SDS011;10319;52.206;20.996;2022-10-30T13:24:10;7.22;;;2.10;;
20322;SDS011;10319;52.206;20.996;2022-10-30T13:31:33;8.10;;;2.10;;
20322;SDS011;10319;52.206;20.996;2022-10-30T13:34:09;9.05;;;2.10;;
20322;SDS011;10319;52.206;20.996;2022-10-30T13:39:09;6.13;;;1.98;;
20322;SDS011;10319;52.206;20.996;2022-10-30T13:49:12;7.55;;;1.70;;
20322;SDS011;10319;52.206;20.996;2022-10-30T13:51:48;6.38;;;1.70;;
20322;SDS011;10319;52.206;20.996;2022-10-30T13:54:32;4.57;;;1.35;;
20322;SDS011;10319;52.206;20.996;2022-10-30T13:57:01;5.82;;;1.67;;
20322;SDS011;10319;52.206;20.996;2022-10-30T14:05:01;7.65;;;1.60;;
20322;SDS011;10319;52.206;20.996;2022-10-30T14:09:58;5.93;;;1.73;;
20322;SDS011;10319;52.206;20.996;2022-10-30T14:18:15;5.43;;;1.45;;
20322;SDS011;10319;52.206;20.996;2022-10-30T14:20:26;7.32;;;1.90;;
20322;SDS011;10319;52.206;20.996;2022-10-30T14:25:35;6.47;;;1.57;;
20322;SDS011;10319;52.206;20.996;2022-10-30T14:28:01;7.90;;;1.70;;
20322;SDS011;10319;52.206;20.996;2022-10-30T14:30:26;9.05;;;2.00;;
20322;SDS011;10319;52.206;20.996;2022-10-30T14:32:52;7.97;;;1.90;;
20322;SDS011;10319;52.206;20.996;2022-10-30T14:35:31;9.02;;;2.30;;
20322;SDS011;10319;52.206;20.996;2022-10-30T14:38:05;12.33;;;2.50;;
20322;SDS011;10319;52.206;20.996;2022-10-30T14:43:16;10.77;;;2.57;;
20322;SDS011;10319;52.206;20.996;2022-10-30T14:45:47;9.70;;;2.80;;
20322;SDS011;10319;52.206;20.996;2022-10-30T14:58:28;10.03;;;2.73;;
20322;SDS011;10319;52.206;20.996;2022-10-30T15:09:09;13.23;;;3.33;;
20322;SDS011;10319;52.206;20.996;2022-10-30T15:14:04;11.53;;;3.30;;
20322;SDS011;10319;52.206;20.996;2022-10-30T15:16:31;11.93;;;2.93;;
20322;SDS011;10319;52.206;20.996;2022-10-30T15:19:01;12.73;;;3.07;;
20322;SDS011;10319;52.206;20.996;2022-10-30T15:21:28;12.47;;;3.10;;
20322;SDS011;10319;52.206;20.996;2022-10-30T15:23:57;13.23;;;3.40;;
20322;SDS011;10319;52.206;20.996;2022-10-30T15:26:24;11.60;;;2.90;;
20322;SDS011;10319;52.206;20.996;2022-10-30T15:28:50;12.03;;;3.10;;
20322;SDS011;10319;52.206;20.996;2022-10-30T15:33:41;11.93;;;3.00;;
20322;SDS011;10319;52.206;20.996;2022-10-30T15:36:23;13.67;;;3.20;;
20322;SDS011;10319;52.206;20.996;2022-10-30T15:41:33;15.33;;;5.13;;
20322;SDS011;10319;52.206;20.996;2022-10-30T15:44:02;16.53;;;5.57;;
20322;SDS011;10319;52.206;20.996;2022-10-30T15:46:27;17.73;;;5.47;;
20322;SDS011;10319;52.206;20.996;2022-10-30T15:48:53;15.47;;;4.40;;
20322;SDS011;10319;52.206;20.996;2022-10-30T15:51:19;15.40;;;3.37;;
20322;SDS011;10319;52.206;20.996;2022-10-30T15:53:46;13.27;;;3.70;;
20322;SDS011;10319;52.206;20.996;2022-10-30T15:56:24;12.93;;;3.70;;
20322;SDS011;10319;52.206;20.996;2022-10-30T15:58:51;12.03;;;3.60;;
20322;SDS011;10319;52.206;20.996;2022-10-30T16:01:52;14.43;;;4.40;;
20322;SDS011;10319;52.206;20.996;2022-10-30T16:04:16;14.37;;;4.37;;
20322;SDS011;10319;52.206;20.996;2022-10-30T16:06:55;15.60;;;4.03;;
20322;SDS011;10319;52.206;20.996;2022-10-30T16:09:21;14.30;;;4.40;;
20322;SDS011;10319;52.206;20.996;2022-10-30T16:11:48;11.70;;;3.37;;
20322;SDS011;10319;52.206;20.996;2022-10-30T16:14:15;12.50;;;3.13;;
20322;SDS011;10319;52.206;20.996;2022-10-30T16:16:42;13.20;;;3.40;;
20322;SDS011;10319;52.206;20.996;2022-10-30T16:19:10;13.77;;;3.70;;
20322;SDS011;10319;52.206;20.996;2022-10-30T16:21:39;13.67;;;4.30;;
20322;SDS011;10319;52.206;20.996;2022-10-30T16:24:04;15.67;;;4.47;;
20322;SDS011;10319;52.206;20.996;2022-10-30T16:26:36;13.93;;;4.20;;
20322;SDS011;10319;52.206;20.996;2022-10-30T16:29:06;12.90;;;4.00;;
20322;SDS011;10319;52.206;20.996;2022-10-30T16:31:33;12.00;;;3.30;;
20322;SDS011;10319;52.206;20.996;2022-10-30T16:34:00;11.93;;;3.20;;
20322;SDS011;10319;52.206;20.996;2022-10-30T16:36:26;13.23;;;3.57;;
20322;SDS011;10319;52.206;20.996;2022-10-30T16:38:51;11.03;;;3.00;;
20322;SDS011;10319;52.206;20.996;2022-10-30T16:41:16;11.77;;;3.17;;
20322;SDS011;10319;52.206;20.996;2022-10-30T16:43:43;16.83;;;4.60;;
20322;SDS011;10319;52.206;20.996;2022-10-30T16:51:15;13.00;;;4.20;;
20322;SDS011;10319;52.206;20.996;2022-10-30T16:53:47;13.70;;;4.47;;
20322;SDS011;10319;52.206;20.996;2022-10-30T16:56:21;12.60;;;3.80;;
20322;SDS011;10319;52.206;20.996;2022-10-30T16:58:46;11.33;;;3.30;;
20322;SDS011;10319;52.206;20.996;2022-10-30T17:01:12;10.90;;;3.10;;
20322;SDS011;10319;52.206;20.996;2022-10-30T17:03:38;9.23;;;2.40;;
20322;SDS011;10319;52.206;20.996;2022-10-30T17:06:05;10.37;;;2.80;;
20322;SDS011;10319;52.206;20.996;2022-10-30T17:08:41;11.50;;;3.00;;
20322;SDS011;10319;52.206;20.996;2022-10-30T17:11:14;10.40;;;2.90;;
20322;SDS011;10319;52.206;20.996;2022-10-30T17:13:57;10.20;;;3.17;;